Time;durP1;ratioP1;P1;durP2;ratioP2;P2;SDS_P1;SDS_P2;PMS_P1;PMS_P2;Temp;Humidity;BMP_temperature;BMP_pressure;BME280_temperature;BME280_humidity;BME280_pressure;Samples;Min_cycle;Max_cycle;Signal;HPM_P1;HPM_P2
2021/12/31 00:02:24;;;;;;;1.67;1.57;;;13.10;99.90;;;;;;4989038;28;21011;-76
2021/12/31 00:04:59;;;;;;;;;;;;;;;;;;;;;
2021/12/31 00:07:25;;;;;;;2.07;1.87;;;13.10;99.90;;;;;;5002536;28;20272;-76
2021/12/31 00:09:58;;;;;;;2.20;2.10;;;13.20;99.90;;;;;;4995195;28;21315;-77
2021/12/31 00:12:24;;;;;;;2.13;2.03;;;13.10;99.90;;;;;;5002963;28;20233;-77
2021/12/31 00:14:49;;;;;;;2.90;2.70;;;13.10;99.90;;;;;;4986984;28;23041;-77
2021/12/31 00:17:15;;;;;;;2.90;2.53;;;13.10;99.90;;;;;;4982196;28;20209;-78
2021/12/31 00:19:44;;;;;;;2.67;2.47;;;13.10;99.90;;;;;;5005255;28;20300;-77
2021/12/31 00:24:44;;;;;;;2.50;2.30;;;13.10;99.90;;;;;;5003570;28;20591;-77
2021/12/31 00:27:14;;;;;;;4.80;3.07;;;13.00;99.90;;;;;;4984276;28;20631;-79
2021/12/31 00:29:43;;;;;;;3.50;3.03;;;13.10;99.90;;;;;;5001276;28;20668;-78
2021/12/31 00:32:08;;;;;;;3.43;3.03;;;13.10;99.90;;;;;;5005490;28;20623;-76
2021/12/31 00:34:34;;;;;;;3.83;2.80;;;13.10;99.90;;;;;;5005883;28;20616;-77
2021/12/31 00:37:02;;;;;;;3.73;3.20;;;13.10;99.90;;;;;;4988277;28;20701;-78
2021/12/31 00:39:27;;;;;;;3.43;3.07;;;13.10;99.90;;;;;;4986598;28;20227;-77
2021/12/31 00:41:53;;;;;;;4.07;3.43;;;13.10;99.90;;;;;;5002019;28;20612;-78
2021/12/31 00:44:20;;;;;;;4.10;3.43;;;13.10;99.90;;;;;;5003402;28;20190;-78
2021/12/31 00:46:47;;;;;;;3.23;2.97;;;13.20;99.90;;;;;;4987451;28;20583;-77
2021/12/31 00:49:15;;;;;;;3.50;3.20;;;13.20;99.90;;;;;;4995954;28;20663;-76
2021/12/31 00:51:41;;;;;;;3.50;3.20;;;13.20;99.90;;;;;;5006640;28;20608;-76
2021/12/31 00:54:06;;;;;;;3.10;2.80;;;13.20;99.90;;;;;;5004796;28;20698;-77
2021/12/31 00:56:36;;;;;;;3.83;3.53;;;13.20;99.90;;;;;;4988342;28;20213;-76
2021/12/31 00:59:04;;;;;;;3.90;3.50;;;13.20;99.90;;;;;;5004752;28;20709;-80
2021/12/31 01:01:36;;;;;;;4.63;4.10;;;13.20;99.90;;;;;;4986429;28;21365;-77
2021/12/31 01:04:03;;;;;;;5.20;4.40;;;13.20;99.90;;;;;;4987876;28;20629;-77
2021/12/31 01:06:29;;;;;;;5.23;4.73;;;13.10;99.90;;;;;;5000017;28;21293;-76
2021/12/31 01:08:57;;;;;;;5.00;4.50;;;13.20;99.90;;;;;;4984339;28;20637;-79
2021/12/31 01:11:22;;;;;;;5.23;4.73;;;13.20;99.90;;;;;;5002903;28;20265;-80
2021/12/31 01:13:54;;;;;;;5.80;4.90;;;13.20;99.90;;;;;;5003846;28;20723;-76
2021/12/31 01:16:22;;;;;;;6.63;5.40;;;13.20;99.90;;;;;;4991727;28;20296;-77
2021/12/31 01:21:21;;;;;;;11.70;5.63;;;13.20;99.90;;;;;;5006233;28;20575;-76
2021/12/31 01:23:52;;;;;;;7.53;5.70;;;13.20;99.90;;;;;;5001507;28;21164;-80
2021/12/31 01:26:21;;;;;;;6.17;5.57;;;13.30;99.90;;;;;;4995563;28;20644;-79
2021/12/31 01:28:47;;;;;;;6.93;5.80;;;13.30;99.90;;;;;;5004080;28;21273;-79
2021/12/31 01:31:12;;;;;;;7.73;5.00;;;13.20;99.90;;;;;;5002856;28;20683;-77
2021/12/31 01:33:38;;;;;;;5.57;4.67;;;13.20;99.90;;;;;;4994921;28;20348;-77
2021/12/31 01:36:06;;;;;;;5.87;5.17;;;13.20;99.90;;;;;;4989185;28;20213;-77
2021/12/31 01:38:34;;;;;;;5.10;4.60;;;13.20;99.90;;;;;;4997627;28;20623;-77
2021/12/31 01:41:02;;;;;;;7.33;5.73;;;13.30;99.90;;;;;;4987641;28;20671;-76
2021/12/31 01:43:28;;;;;;;6.73;5.53;;;13.30;99.90;;;;;;4987120;28;20628;-77
2021/12/31 01:45:56;;;;;;;6.30;5.70;;;13.30;99.90;;;;;;5003412;28;21012;-78
2021/12/31 01:48:33;;;;;;;7.30;5.37;;;13.30;99.90;;;;;;5000515;28;20186;-77
2021/12/31 01:51:01;;;;;;;8.43;5.90;;;13.30;99.90;;;;;;5001623;28;20585;-77
2021/12/31 01:53:27;;;;;;;12.93;6.10;;;13.30;99.90;;;;;;5006262;28;20723;-77
2021/12/31 01:55:57;;;;;;;8.53;5.33;;;13.30;99.90;;;;;;4986012;28;20747;-78
2021/12/31 01:58:27;;;;;;;7.10;5.40;;;13.20;99.90;;;;;;5003460;28;20785;-78
2021/12/31 02:00:53;;;;;;;7.90;5.47;;;13.30;99.90;;;;;;5002181;28;21039;-77
2021/12/31 02:03:21;;;;;;;9.80;5.33;;;13.30;99.90;;;;;;5003456;28;20601;-78
2021/12/31 02:05:48;;;;;;;6.60;5.40;;;13.30;99.90;;;;;;5002264;28;20644;-77
2021/12/31 02:08:18;;;;;;;9.40;5.53;;;13.30;99.90;;;;;;4988532;28;20608;-76
2021/12/31 02:10:44;;;;;;;10.43;5.30;;;13.30;99.90;;;;;;5000789;28;20990;-78
2021/12/31 02:13:10;;;;;;;9.90;5.67;;;13.30;99.90;;;;;;4988420;28;20695;-77
2021/12/31 02:15:35;;;;;;;10.17;5.87;;;13.30;99.90;;;;;;5005824;28;20228;-78
2021/12/31 02:18:03;;;;;;;6.80;5.23;;;13.30;99.90;;;;;;4994179;28;20641;-77
2021/12/31 02:20:41;;;;;;;8.30;6.17;;;13.30;99.90;;;;;;5003147;28;20228;-77
2021/12/31 02:23:13;;;;;;;11.93;5.70;;;13.30;99.90;;;;;;5003630;28;20600;-76
2021/12/31 02:25:39;;;;;;;9.70;6.40;;;13.30;99.90;;;;;;5004409;28;20652;-77
2021/12/31 02:28:08;;;;;;;6.83;5.87;;;13.30;99.90;;;;;;4986969;28;20632;-77
2021/12/31 02:30:36;;;;;;;9.80;6.17;;;13.30;99.90;;;;;;4991993;28;20629;-78
2021/12/31 02:33:03;;;;;;;6.93;5.70;;;13.30;99.90;;;;;;5002203;28;20655;-77
2021/12/31 02:35:32;;;;;;;11.50;5.97;;;13.20;99.90;;;;;;5003606;28;20631;-78
2021/12/31 02:38:01;;;;;;;7.90;5.67;;;13.30;99.90;;;;;;5003540;28;20775;-77
2021/12/31 02:40:28;;;;;;;9.50;5.63;;;13.20;99.90;;;;;;4997984;28;20648;-80
2021/12/31 02:42:55;;;;;;;9.00;5.37;;;13.30;99.90;;;;;;5004823;28;20625;-77
2021/12/31 02:45:28;;;;;;;11.17;6.60;;;13.30;99.90;;;;;;5007773;28;20648;-77
2021/12/31 02:48:00;;;;;;;7.50;5.40;;;13.30;99.90;;;;;;4998408;28;20620;-77
2021/12/31 02:50:33;;;;;;;6.60;5.13;;;13.30;99.90;;;;;;4990774;28;20643;-77
2021/12/31 02:53:12;;;;;;;9.10;5.60;;;13.30;99.90;;;;;;5006020;28;20607;-79
2021/12/31 02:55:41;;;;;;;8.07;5.43;;;13.30;99.90;;;;;;4989851;28;20653;-78
2021/12/31 02:58:08;;;;;;;11.40;6.00;;;13.40;99.90;;;;;;5006037;28;20696;-77
2021/12/31 03:00:40;;;;;;;8.47;5.30;;;13.30;99.90;;;;;;5006213;28;20632;-77
2021/12/31 03:03:11;;;;;;;8.70;6.00;;;13.30;99.90;;;;;;5006976;28;20643;-76
2021/12/31 03:05:40;;;;;;;9.70;5.23;;;13.20;99.90;;;;;;5008236;28;20632;-77
2021/12/31 03:08:10;;;;;;;7.70;5.60;;;13.20;99.90;;;;;;4998499;28;20786;-77
2021/12/31 03:10:36;;;;;;;7.80;5.70;;;13.20;99.90;;;;;;5002465;28;20663;-78
2021/12/31 03:13:02;;;;;;;6.20;5.60;;;13.20;99.90;;;;;;4988544;28;20620;-77
2021/12/31 03:15:29;;;;;;;11.47;5.93;;;13.30;99.90;;;;;;5006321;28;20631;-76
2021/12/31 03:17:59;;;;;;;12.33;5.80;;;13.20;99.90;;;;;;5004539;28;22797;-77
2021/12/31 03:20:36;;;;;;;8.87;5.40;;;13.30;99.90;;;;;;5007376;28;20639;-76
2021/12/31 03:23:02;;;;;;;6.43;5.10;;;13.30;99.90;;;;;;4990000;28;20604;-76
2021/12/31 03:25:31;;;;;;;5.57;5.10;;;13.20;99.90;;;;;;5008872;28;20640;-77
2021/12/31 03:27:56;;;;;;;9.33;5.80;;;13.30;99.90;;;;;;5003767;28;20619;-77
2021/12/31 03:30:22;;;;;;;8.30;5.50;;;13.30;99.90;;;;;;4986986;28;20639;-76
2021/12/31 03:32:50;;;;;;;5.97;5.23;;;13.20;99.90;;;;;;5003812;28;22979;-79
2021/12/31 03:35:18;;;;;;;7.50;5.40;;;13.20;99.90;;;;;;4990340;28;20259;-78
2021/12/31 03:37:44;;;;;;;11.00;5.90;;;13.20;99.90;;;;;;4985877;28;20808;-80
2021/12/31 03:40:14;;;;;;;9.23;5.37;;;13.20;99.90;;;;;;5003509;28;20785;-77
2021/12/31 03:42:40;;;;;;;5.30;4.60;;;13.20;99.90;;;;;;5003961;28;20263;-76
2021/12/31 03:45:08;;;;;;;6.07;5.40;;;13.20;99.90;;;;;;5006468;28;21254;-77
2021/12/31 03:47:37;;;;;;;6.50;4.80;;;13.20;99.90;;;;;;5006732;28;20671;-78
2021/12/31 03:50:02;;;;;;;8.73;5.47;;;13.10;99.90;;;;;;5003073;28;20633;-80
2021/12/31 03:52:28;;;;;;;8.90;5.30;;;13.10;99.90;;;;;;5006177;28;20624;-80
2021/12/31 03:54:54;;;;;;;8.03;5.30;;;13.10;99.90;;;;;;5006362;28;20252;-76
2021/12/31 03:57:19;;;;;;;6.27;5.23;;;13.20;99.90;;;;;;5004077;28;20308;-80
2021/12/31 03:59:45;;;;;;;6.33;4.70;;;13.10;99.90;;;;;;5003804;28;20247;-77
2021/12/31 04:02:13;;;;;;;7.50;5.10;;;13.10;99.90;;;;;;5006817;28;20594;-77
2021/12/31 04:04:38;;;;;;;7.90;5.03;;;13.10;99.90;;;;;;5004703;28;20504;-81
2021/12/31 04:07:04;;;;;;;5.37;4.40;;;13.20;99.90;;;;;;4987678;28;20641;-76
2021/12/31 04:09:29;;;;;;;11.37;5.67;;;13.20;99.90;;;;;;4989429;28;20828;-76
2021/12/31 04:11:55;;;;;;;10.97;5.30;;;13.20;99.90;;;;;;5003501;28;20221;-77
2021/12/31 04:14:20;;;;;;;7.87;6.47;;;13.20;99.90;;;;;;5005497;28;20212;-76
2021/12/31 04:16:46;;;;;;;8.37;5.37;;;13.20;99.90;;;;;;5004904;28;20308;-76
2021/12/31 04:19:12;;;;;;;7.83;5.20;;;13.20;99.90;;;;;;4986385;28;20241;-80
2021/12/31 04:21:37;;;;;;;7.13;5.77;;;13.20;99.90;;;;;;4989455;28;20567;-78
2021/12/31 04:24:13;;;;;;;8.20;4.77;;;13.10;99.90;;;;;;5006097;28;20362;-79
2021/12/31 04:26:39;;;;;;;7.60;5.23;;;13.20;99.90;;;;;;4979269;28;20212;-79
2021/12/31 04:29:05;;;;;;;10.13;5.97;;;13.10;99.90;;;;;;4987129;28;21278;-78
2021/12/31 04:31:30;;;;;;;8.47;5.13;;;13.00;99.90;;;;;;4995518;28;20612;-76
2021/12/31 04:33:56;;;;;;;8.80;5.27;;;13.00;99.90;;;;;;4988999;28;20193;-77
2021/12/31 04:36:22;;;;;;;8.37;5.20;;;13.10;99.90;;;;;;4994989;28;20709;-76
2021/12/31 04:38:50;;;;;;;12.70;5.30;;;13.10;99.90;;;;;;4994066;28;20602;-78
2021/12/31 04:41:18;;;;;;;6.90;4.90;;;13.10;99.90;;;;;;5005169;28;20193;-77
2021/12/31 04:43:43;;;;;;;9.07;5.07;;;13.10;99.90;;;;;;5004350;28;20613;-78
2021/12/31 04:46:11;;;;;;;7.60;5.20;;;13.10;99.90;;;;;;4986792;28;21257;-76
2021/12/31 04:48:39;;;;;;;5.57;5.07;;;13.20;99.90;;;;;;4987339;28;20226;-76
2021/12/31 04:51:04;;;;;;;7.20;5.20;;;13.10;99.90;;;;;;5005433;28;20623;-76
2021/12/31 04:53:30;;;;;;;7.90;4.80;;;13.10;99.90;;;;;;5004623;28;20608;-77
2021/12/31 04:55:56;;;;;;;5.50;4.93;;;13.20;99.90;;;;;;5002846;28;20273;-78
2021/12/31 04:58:23;;;;;;;9.57;4.60;;;13.10;99.90;;;;;;5005539;28;20590;-76
2021/12/31 05:00:49;;;;;;;12.40;5.30;;;13.20;99.90;;;;;;5002587;28;20197;-77
2021/12/31 05:03:17;;;;;;;6.47;4.20;;;13.10;99.90;;;;;;4993372;28;20619;-76
2021/12/31 05:05:42;;;;;;;7.37;4.80;;;13.20;99.90;;;;;;5005092;28;20283;-79
2021/12/31 05:08:10;;;;;;;7.27;4.43;;;13.20;99.90;;;;;;4986513;28;20818;-78
2021/12/31 05:10:36;;;;;;;5.43;4.40;;;13.20;99.90;;;;;;4987137;28;20213;-78
2021/12/31 05:13:03;;;;;;;4.83;3.80;;;13.30;99.90;;;;;;5002589;28;20703;-78
2021/12/31 05:15:35;;;;;;;6.30;4.40;;;13.30;99.90;;;;;;5004007;28;20197;-77
2021/12/31 05:18:01;;;;;;;7.60;4.03;;;13.20;99.90;;;;;;4986494;28;20663;-76
2021/12/31 05:20:27;;;;;;;9.20;3.93;;;13.30;99.90;;;;;;5000345;28;20648;-77
2021/12/31 05:22:53;;;;;;;5.00;4.07;;;13.30;99.90;;;;;;5002621;28;20186;-76
2021/12/31 05:25:22;;;;;;;7.90;4.37;;;13.30;99.90;;;;;;5001686;28;20688;-77
2021/12/31 05:27:48;;;;;;;8.80;3.93;;;13.30;99.90;;;;;;4985153;28;20182;-77
2021/12/31 05:30:15;;;;;;;4.50;3.67;;;13.30;99.90;;;;;;4979440;28;20637;-77
2021/12/31 05:32:42;;;;;;;5.97;3.77;;;13.30;99.90;;;;;;5002981;28;20277;-77
2021/12/31 05:35:08;;;;;;;7.50;3.83;;;13.30;99.90;;;;;;5001048;28;20648;-78
2021/12/31 05:37:33;;;;;;;4.00;3.60;;;13.20;99.90;;;;;;5005656;28;20644;-76
2021/12/31 05:39:59;;;;;;;6.70;4.23;;;13.30;99.90;;;;;;4996983;28;20644;-76
2021/12/31 05:42:24;;;;;;;4.53;4.13;;;13.30;99.90;;;;;;4992956;28;20189;-75
2021/12/31 05:44:50;;;;;;;6.23;4.30;;;13.40;99.90;;;;;;4983124;28;20193;-77
2021/12/31 05:47:19;;;;;;;7.63;3.90;;;13.30;99.90;;;;;;4994610;28;20197;-77
2021/12/31 05:49:46;;;;;;;5.70;3.97;;;13.30;99.90;;;;;;5003851;28;20225;-76
2021/12/31 05:52:11;;;;;;;6.43;4.23;;;13.30;99.90;;;;;;5005790;28;20623;-76
2021/12/31 05:54:37;;;;;;;10.03;4.50;;;13.30;99.90;;;;;;5004968;28;20620;-78
2021/12/31 05:57:03;;;;;;;5.67;4.10;;;13.30;99.90;;;;;;4989867;28;21175;-76
2021/12/31 05:59:28;;;;;;;7.93;4.33;;;13.30;99.90;;;;;;4987718;28;20294;-76
2021/12/31 06:01:54;;;;;;;6.33;4.80;;;13.30;99.90;;;;;;4985264;28;20205;-76
2021/12/31 06:04:19;;;;;;;7.93;4.60;;;13.40;99.90;;;;;;4983778;28;20200;-77
2021/12/31 06:06:45;;;;;;;6.90;4.40;;;13.40;99.90;;;;;;5002806;28;20216;-76
2021/12/31 06:09:13;;;;;;;7.10;5.23;;;13.40;99.90;;;;;;4997905;28;20233;-76
2021/12/31 06:11:40;;;;;;;10.77;5.07;;;13.30;99.90;;;;;;4985024;28;20193;-75
2021/12/31 06:14:07;;;;;;;7.90;5.40;;;13.30;99.90;;;;;;4986294;28;20628;-77
2021/12/31 06:16:37;;;;;;;5.60;5.10;;;13.40;99.90;;;;;;5002971;28;20691;-76
2021/12/31 06:19:05;;;;;;;7.97;5.70;;;13.40;99.90;;;;;;5006144;28;20645;-77
2021/12/31 06:21:36;;;;;;;6.20;5.30;;;13.40;99.90;;;;;;5007840;28;20617;-77
2021/12/31 06:24:01;;;;;;;8.70;6.30;;;13.40;99.90;;;;;;5002568;28;20596;-75
2021/12/31 06:26:27;;;;;;;6.10;5.50;;;13.40;99.90;;;;;;4993212;28;20643;-77
2021/12/31 06:28:53;;;;;;;6.27;5.67;;;13.40;99.90;;;;;;4996839;28;20232;-75
2021/12/31 06:31:22;;;;;;;6.10;5.50;;;13.40;99.90;;;;;;5003339;28;20193;-76
2021/12/31 06:33:47;;;;;;;7.60;5.83;;;13.40;99.90;;;;;;4990368;28;20190;-77
2021/12/31 06:36:18;;;;;;;11.83;6.50;;;13.40;99.90;;;;;;5008938;28;20671;-77
2021/12/31 06:38:44;;;;;;;12.07;6.40;;;13.30;99.90;;;;;;5003054;28;20225;-76
2021/12/31 06:41:10;;;;;;;8.40;6.43;;;13.30;99.90;;;;;;4988473;28;20632;-77
2021/12/31 06:43:35;;;;;;;8.10;7.23;;;13.30;99.90;;;;;;5010118;28;20209;-76
2021/12/31 06:46:03;;;;;;;7.60;6.50;;;13.40;99.90;;;;;;5005502;28;20210;-76
2021/12/31 06:48:29;;;;;;;8.27;7.47;;;13.40;99.90;;;;;;5008683;28;20201;-77
2021/12/31 06:50:54;;;;;;;9.23;7.40;;;13.50;99.90;;;;;;5008325;28;20600;-78
2021/12/31 06:53:20;;;;;;;8.47;7.00;;;13.50;99.90;;;;;;5007317;28;20646;-76
2021/12/31 06:55:46;;;;;;;8.00;7.17;;;13.50;99.90;;;;;;5003377;28;20357;-77
2021/12/31 06:58:11;;;;;;;8.33;7.53;;;13.50;99.90;;;;;;4997930;28;20747;-76
2021/12/31 07:00:37;;;;;;;8.00;6.77;;;13.50;99.90;;;;;;4989931;28;20745;-77
2021/12/31 07:03:13;;;;;;;9.37;7.23;;;13.40;99.90;;;;;;4988114;28;20657;-76
2021/12/31 07:05:45;;;;;;;8.23;7.30;;;13.50;99.90;;;;;;4990092;28;20232;-79
2021/12/31 07:08:11;;;;;;;10.10;7.67;;;13.40;99.90;;;;;;5004227;28;20747;-77
2021/12/31 07:10:37;;;;;;;8.83;7.67;;;13.40;99.90;;;;;;4988003;28;20702;-77
2021/12/31 07:13:10;;;;;;;10.83;7.50;;;13.40;99.90;;;;;;4990654;28;20629;-76
2021/12/31 07:15:50;;;;;;;9.17;8.13;;;13.50;99.90;;;;;;4999952;28;20662;-77
2021/12/31 07:18:20;;;;;;;9.63;7.80;;;13.40;99.90;;;;;;4998876;28;20635;-76
2021/12/31 07:20:47;;;;;;;8.63;7.40;;;13.40;99.90;;;;;;5007048;28;20641;-76
2021/12/31 07:23:16;;;;;;;7.67;6.97;;;13.40;99.90;;;;;;5005762;28;20625;-76
2021/12/31 07:25:42;;;;;;;7.77;6.90;;;13.50;99.90;;;;;;5006656;28;20656;-78
2021/12/31 07:28:09;;;;;;;12.20;8.17;;;13.50;99.90;;;;;;5004765;28;20695;-77
2021/12/31 07:30:35;;;;;;;9.03;7.87;;;13.40;99.90;;;;;;5005395;28;20752;-76
2021/12/31 07:33:01;;;;;;;8.60;7.80;;;13.50;99.90;;;;;;5005677;28;20720;-76
2021/12/31 07:35:26;;;;;;;10.10;7.93;;;13.50;99.90;;;;;;5007415;28;20777;-77
2021/12/31 07:37:55;;;;;;;8.47;7.67;;;13.60;99.90;;;;;;4990546;28;20653;-77
2021/12/31 07:40:41;;;;;;;8.80;8.00;;;13.60;99.90;;;;;;5003557;28;20239;-77
2021/12/31 07:43:08;;;;;;;9.77;8.77;;;13.40;99.90;;;;;;4999384;28;20618;-76
2021/12/31 07:45:34;;;;;;;9.40;8.17;;;13.50;99.90;;;;;;4999994;28;21023;-77
2021/12/31 07:48:01;;;;;;;8.63;7.67;;;13.60;99.90;;;;;;5007181;28;20608;-76
2021/12/31 07:50:26;;;;;;;9.43;8.53;;;13.50;99.90;;;;;;5006890;28;20228;-77
2021/12/31 07:52:52;;;;;;;8.43;7.63;;;13.40;99.90;;;;;;5008169;28;20617;-76
2021/12/31 07:55:17;;;;;;;9.17;7.80;;;13.50;99.90;;;;;;4989880;28;20231;-77
2021/12/31 07:57:43;;;;;;;10.80;7.70;;;13.50;99.90;;;;;;4982960;28;20300;-75
2021/12/31 08:00:09;;;;;;;9.63;8.30;;;13.60;99.90;;;;;;4996078;28;20222;-76
2021/12/31 08:02:35;;;;;;;7.93;7.13;;;13.50;99.90;;;;;;4990243;28;20567;-76
2021/12/31 08:05:00;;;;;;;9.70;8.30;;;13.50;99.90;;;;;;4989867;28;20791;-76
2021/12/31 08:07:26;;;;;;;8.67;7.80;;;13.50;99.90;;;;;;4991906;28;20204;-77
2021/12/31 08:09:52;;;;;;;10.83;7.90;;;13.60;99.90;;;;;;4999056;28;20795;-76
2021/12/31 08:12:18;;;;;;;8.40;7.50;;;13.50;99.90;;;;;;5004836;28;20662;-76
2021/12/31 08:14:43;;;;;;;8.63;7.83;;;13.60;99.90;;;;;;4989732;28;20665;-76
2021/12/31 08:17:09;;;;;;;8.43;7.63;;;13.60;99.90;;;;;;4989949;28;20700;-77
2021/12/31 08:19:34;;;;;;;8.13;7.37;;;13.60;99.90;;;;;;4987112;28;20229;-74
2021/12/31 08:22:00;;;;;;;9.13;8.00;;;13.60;99.90;;;;;;4996415;28;20194;-76
2021/12/31 08:24:25;;;;;;;9.70;7.60;;;13.70;99.90;;;;;;4985531;28;20182;-75
2021/12/31 08:26:51;;;;;;;8.47;7.27;;;13.70;99.90;;;;;;5004640;28;20197;-76
2021/12/31 08:29:18;;;;;;;10.27;7.70;;;13.80;99.90;;;;;;4995944;28;20257;-73
2021/12/31 08:31:44;;;;;;;7.37;6.77;;;13.60;99.90;;;;;;4980604;28;21153;-76
2021/12/31 08:34:11;;;;;;;7.83;7.13;;;13.70;99.90;;;;;;4988485;28;20613;-75
2021/12/31 08:36:37;;;;;;;8.00;7.20;;;13.70;99.90;;;;;;4994864;28;21105;-76
2021/12/31 08:39:05;;;;;;;7.87;6.70;;;13.70;99.90;;;;;;5002314;28;20637;-74
2021/12/31 08:41:31;;;;;;;8.30;7.60;;;13.70;99.90;;;;;;4988969;28;20617;-77
2021/12/31 08:43:56;;;;;;;8.53;7.77;;;13.80;99.90;;;;;;5002167;28;20616;-77
2021/12/31 08:46:22;;;;;;;7.37;6.77;;;13.80;99.90;;;;;;5005972;28;20651;-77
2021/12/31 08:48:48;;;;;;;7.70;7.00;;;13.90;99.90;;;;;;4989382;28;20724;-76
2021/12/31 08:51:13;;;;;;;7.53;5.93;;;13.90;99.90;;;;;;5004825;28;20185;-75
2021/12/31 08:53:39;;;;;;;7.00;6.30;;;13.90;99.90;;;;;;5005030;28;20830;-77
2021/12/31 08:56:05;;;;;;;7.63;6.87;;;13.90;99.90;;;;;;5002993;28;20527;-75
2021/12/31 08:58:31;;;;;;;7.37;6.67;;;13.90;99.90;;;;;;4986475;28;20632;-77
2021/12/31 09:00:56;;;;;;;6.57;6.07;;;13.90;99.90;;;;;;4989157;28;20212;-77
2021/12/31 09:03:22;;;;;;;9.50;6.20;;;13.90;99.90;;;;;;4985645;28;20632;-74
2021/12/31 09:05:47;;;;;;;6.47;5.97;;;13.90;99.90;;;;;;5002117;28;20225;-75
2021/12/31 09:08:14;;;;;;;6.80;6.17;;;13.90;99.90;;;;;;4995699;28;20186;-78
2021/12/31 09:10:39;;;;;;;6.13;5.63;;;14.00;99.90;;;;;;4992472;28;20213;-74
2021/12/31 09:13:05;;;;;;;5.77;4.97;;;14.00;99.90;;;;;;5004712;28;20616;-75
2021/12/31 09:15:30;;;;;;;5.70;5.30;;;14.00;99.90;;;;;;4999796;28;20293;-78
2021/12/31 09:17:56;;;;;;;6.67;5.10;;;14.00;99.90;;;;;;4988921;28;20322;-75
2021/12/31 09:20:22;;;;;;;5.27;4.77;;;14.10;99.90;;;;;;5004646;28;20217;-75
2021/12/31 09:22:48;;;;;;;6.07;5.57;;;14.10;99.90;;;;;;4988783;28;20206;-76
2021/12/31 09:25:15;;;;;;;6.20;4.90;;;14.10;99.90;;;;;;5004757;28;21196;-76
2021/12/31 09:27:40;;;;;;;5.13;4.60;;;14.10;99.90;;;;;;4989979;28;20182;-77
2021/12/31 09:30:08;;;;;;;5.20;4.33;;;14.10;99.90;;;;;;4986531;28;20642;-76
2021/12/31 09:32:34;;;;;;;4.70;4.30;;;14.20;99.90;;;;;;4984858;28;20276;-76
2021/12/31 09:35:00;;;;;;;6.27;4.40;;;14.10;99.90;;;;;;4989370;28;22111;-75
2021/12/31 09:37:28;;;;;;;5.47;4.47;;;14.20;99.90;;;;;;5007167;28;20224;-74
2021/12/31 09:39:53;;;;;;;5.13;4.30;;;14.20;99.90;;;;;;4976341;28;20224;-75
2021/12/31 09:42:19;;;;;;;5.07;4.50;;;14.20;99.90;;;;;;4995525;28;20620;-77
2021/12/31 09:44:48;;;;;;;5.00;4.57;;;14.30;99.90;;;;;;5007560;28;20725;-77
2021/12/31 09:47:19;;;;;;;4.73;4.23;;;14.30;99.90;;;;;;5005907;28;20189;-76
2021/12/31 09:49:47;;;;;;;4.23;3.93;;;14.30;99.90;;;;;;4985410;28;20640;-75
2021/12/31 09:52:15;;;;;;;5.00;4.30;;;14.40;99.90;;;;;;5000070;28;20612;-76
2021/12/31 09:54:43;;;;;;;5.13;4.70;;;14.40;99.90;;;;;;4999159;28;21027;-79
2021/12/31 09:57:16;;;;;;;4.70;3.93;;;14.40;99.90;;;;;;4984600;28;20662;-76
2021/12/31 09:59:42;;;;;;;4.53;4.10;;;14.30;99.90;;;;;;4983260;28;20690;-76
2021/12/31 10:02:11;;;;;;;4.80;3.80;;;14.30;99.90;;;;;;4993350;28;20645;-79
2021/12/31 10:04:58;;;;;;;3.90;3.60;;;14.20;99.90;;;;;;4995690;28;20595;-80
2021/12/31 10:07:28;;;;;;;5.77;3.97;;;14.30;99.90;;;;;;5002016;28;20797;-77
2021/12/31 10:10:05;;;;;;;4.17;3.87;;;14.30;99.90;;;;;;5003430;28;20632;-78
2021/12/31 10:12:53;;;;;;;5.53;4.63;;;14.20;99.90;;;;;;4982217;28;21127;-76
2021/12/31 10:15:24;;;;;;;4.40;4.10;;;14.20;99.90;;;;;;4992834;28;20637;-78
2021/12/31 10:17:51;;;;;;;4.40;4.00;;;14.30;99.90;;;;;;4998999;28;20665;-80
2021/12/31 10:20:18;;;;;;;4.27;3.93;;;14.20;99.90;;;;;;4992065;28;20644;-77
2021/12/31 10:22:47;;;;;;;5.53;3.93;;;14.20;99.90;;;;;;4977945;28;20710;-82
2021/12/31 10:25:21;;;;;;;4.17;3.80;;;14.30;99.90;;;;;;5007279;28;20707;-80
2021/12/31 10:27:52;;;;;;;4.30;4.00;;;14.30;99.90;;;;;;4988434;28;20627;-83
2021/12/31 10:30:22;;;;;;;7.77;4.37;;;14.20;99.90;;;;;;4998062;28;21283;-76
2021/12/31 10:32:50;;;;;;;3.90;3.60;;;14.20;99.90;;;;;;4973384;28;20675;-80
2021/12/31 10:35:19;;;;;;;5.00;3.63;;;14.20;99.90;;;;;;4999366;28;20705;-76
2021/12/31 10:37:57;;;;;;;5.40;4.10;;;14.30;99.90;;;;;;4998720;28;20648;-76
2021/12/31 10:40:28;;;;;;;4.07;3.77;;;14.30;99.90;;;;;;5000349;28;20635;-75
2021/12/31 10:43:12;;;;;;;6.87;5.07;;;14.30;99.90;;;;;;4998038;28;20612;-75
2021/12/31 10:46:22;;;;;;;4.27;3.83;;;14.30;99.90;;;;;;4992685;28;20632;-75
2021/12/31 10:48:54;;;;;;;6.50;3.93;;;14.40;99.90;;;;;;4992363;28;20639;-76
2021/12/31 10:51:37;;;;;;;5.20;4.20;;;14.30;99.90;;;;;;5002347;28;20988;-76
2021/12/31 10:54:32;;;;;;;5.07;3.70;;;14.20;99.90;;;;;;4989139;28;20641;-77
2021/12/31 10:56:59;;;;;;;3.80;3.60;;;14.30;99.90;;;;;;4996823;28;20651;-77
2021/12/31 10:59:26;;;;;;;4.40;4.00;;;14.20;99.90;;;;;;4996026;28;20640;-75
2021/12/31 11:01:52;;;;;;;4.20;3.90;;;14.20;99.90;;;;;;4984294;28;20608;-76
2021/12/31 11:04:20;;;;;;;6.60;4.07;;;14.20;99.90;;;;;;4986743;28;21013;-75
2021/12/31 11:06:47;;;;;;;5.03;3.93;;;14.30;99.90;;;;;;4987380;28;20674;-76
2021/12/31 11:09:13;;;;;;;4.10;3.80;;;14.20;99.90;;;;;;5002474;28;20635;-76
2021/12/31 11:11:42;;;;;;;3.70;3.40;;;14.20;99.90;;;;;;4996323;28;21195;-76
2021/12/31 11:14:08;;;;;;;4.27;3.87;;;14.20;99.90;;;;;;4989081;28;20612;-76
2021/12/31 11:16:38;;;;;;;4.60;4.20;;;14.20;99.90;;;;;;4983501;28;20723;-76
2021/12/31 11:19:04;;;;;;;6.17;4.60;;;14.20;99.90;;;;;;5001822;28;21270;-75
2021/12/31 11:21:31;;;;;;;5.93;4.70;;;14.20;99.90;;;;;;5003675;28;20603;-75
2021/12/31 11:24:37;;;;;;;4.93;4.53;;;14.10;99.90;;;;;;5001296;28;21193;-75
2021/12/31 11:27:35;;;;;;;4.63;4.33;;;14.20;99.90;;;;;;4984503;28;20648;-75
2021/12/31 11:30:03;;;;;;;4.80;4.27;;;14.20;99.90;;;;;;4998868;28;20632;-77
2021/12/31 11:32:48;;;;;;;4.37;3.80;;;14.30;99.90;;;;;;5001698;28;21183;-76
2021/12/31 11:35:32;;;;;;;4.30;4.00;;;14.20;99.90;;;;;;5002095;28;20656;-76
2021/12/31 11:37:59;;;;;;;6.80;4.40;;;14.20;99.90;;;;;;4998938;28;20705;-75
2021/12/31 11:40:28;;;;;;;4.17;3.87;;;14.20;99.90;;;;;;5000008;28;20783;-75
2021/12/31 11:43:24;;;;;;;4.80;4.43;;;14.10;99.90;;;;;;5004532;28;20609;-77
2021/12/31 11:46:09;;;;;;;5.13;4.67;;;14.20;99.90;;;;;;4978155;28;20660;-76
2021/12/31 11:48:50;;;;;;;4.33;4.03;;;14.20;99.90;;;;;;5000525;28;20627;-76
2021/12/31 11:51:34;;;;;;;5.07;4.43;;;14.20;99.90;;;;;;4995462;28;20596;-76
2021/12/31 11:54:00;;;;;;;4.63;4.33;;;14.20;99.90;;;;;;4986549;28;20641;-76
2021/12/31 11:56:45;;;;;;;4.70;4.30;;;14.20;99.90;;;;;;4994530;28;20683;-75
2021/12/31 11:59:16;;;;;;;4.83;4.43;;;14.20;99.90;;;;;;4993951;28;20228;-76
2021/12/31 12:01:48;;;;;;;4.70;4.30;;;14.20;99.90;;;;;;4999750;28;20710;-76
2021/12/31 12:04:30;;;;;;;8.33;4.93;;;14.20;99.90;;;;;;5000650;28;21495;-75
2021/12/31 12:07:02;;;;;;;4.70;4.30;;;14.10;99.90;;;;;;4988153;28;20656;-75
2021/12/31 12:09:37;;;;;;;5.13;4.73;;;14.10;99.90;;;;;;4983978;28;20636;-77
2021/12/31 12:12:28;;;;;;;4.73;4.43;;;14.10;99.90;;;;;;4993726;28;20714;-74
2021/12/31 12:14:59;;;;;;;4.97;4.57;;;14.10;99.90;;;;;;4997902;28;20633;-76
2021/12/31 12:17:31;;;;;;;5.40;4.90;;;14.10;99.90;;;;;;4985014;28;22887;-76
2021/12/31 12:20:04;;;;;;;5.03;4.63;;;14.10;99.90;;;;;;4999942;28;20640;-77
2021/12/31 12:22:35;;;;;;;5.50;4.73;;;14.00;99.90;;;;;;4976018;28;20624;-74
2021/12/31 12:25:16;;;;;;;5.90;5.40;;;14.00;99.90;;;;;;4981603;28;21240;-74
2021/12/31 12:27:43;;;;;;;7.73;5.90;;;14.00;99.90;;;;;;4996303;28;20600;-75
2021/12/31 12:30:14;;;;;;;5.77;5.20;;;13.90;99.90;;;;;;4986042;28;20648;-75
2021/12/31 12:35:22;;;;;;;6.00;5.50;;;13.90;99.90;;;;;;4983816;28;20667;-74
2021/12/31 12:38:13;;;;;;;6.23;5.77;;;13.90;99.90;;;;;;4994692;28;20620;-77
2021/12/31 12:41:02;;;;;;;7.97;5.93;;;13.90;99.90;;;;;;4968733;28;20687;-76
2021/12/31 12:43:29;;;;;;;5.73;5.33;;;13.90;99.90;;;;;;5002106;28;20587;-76
2021/12/31 12:45:58;;;;;;;6.70;6.10;;;13.80;99.90;;;;;;5004183;28;20648;-74
2021/12/31 12:48:36;;;;;;;6.80;6.20;;;13.80;99.90;;;;;;4986131;28;20615;-73
2021/12/31 12:51:14;;;;;;;6.77;6.20;;;13.80;99.90;;;;;;4990508;28;20621;-76
2021/12/31 12:53:43;;;;;;;8.40;6.47;;;13.80;99.90;;;;;;4998409;28;21218;-74
2021/12/31 12:56:12;;;;;;;7.73;6.83;;;13.80;99.90;;;;;;4998821;28;20648;-76
2021/12/31 12:58:41;;;;;;;7.77;7.07;;;13.60;99.90;;;;;;4981688;28;20619;-74
2021/12/31 13:01:08;;;;;;;8.50;7.27;;;13.80;99.90;;;;;;5004989;28;20580;-74
2021/12/31 13:03:49;;;;;;;6.80;6.20;;;13.80;99.90;;;;;;4992403;28;20608;-74
2021/12/31 13:06:15;;;;;;;7.20;6.43;;;13.80;99.90;;;;;;4999722;28;20644;-75